Weather at Boerne Stage Field

Public forecast

Using degrees Fahrenheit for public forecast. Weather courtesy of forecast.io.

Current aviation weather report (METAR) for Boerne Stage Field

(retrieved 0 seconds ago)

Closest aviation forecast (TAF) to Boerne Stage Field

Closest forecast is San Antonio International Airport, 16.4 nm (30.3 km) SE.

2023/04/01 06:22 (retrieved 2 hours ago)

TAF KSAT 010520Z 0106/0212 32004KT P6SM FEW050 SCT250 FM011500 06010KT P6SM FEW060 BKN150 FM020000 10005KT P6SM FEW050 BKN150